Time;durP1;ratioP1;P1;durP2;ratioP2;P2;SDS_P1;SDS_P2;PMS_P1;PMS_P2;Temp;Humidity;BMP_temperature;BMP_pressure;BME280_temperature;BME280_humidity;BME280_pressure;Samples;Min_cycle;Max_cycle;Signal;HPM_P1;HPM_P2
2021/03/20 00:00:47;;;;;;;45.63;24.20;;;;;;;2.19;76.74;100348.75;1708815;83;20975;-53
2021/03/20 00:03:20;;;;;;;36.17;20.85;;;;;;;2.23;76.52;100355.40;1704472;83;21003;-54
2021/03/20 00:05:54;;;;;;;32.33;20.05;;;;;;;2.25;76.43;100355.99;1704649;84;21030;-54
2021/03/20 00:08:28;;;;;;;31.65;18.30;;;;;;;2.28;76.03;100352.84;1684318;84;21263;-54
2021/03/20 00:11:02;;;;;;;32.23;16.30;;;;;;;2.32;75.60;100353.25;1704215;84;21058;-56
2021/03/20 00:13:30;;;;;;;29.52;16.57;;;;;;;2.32;75.37;100354.59;1704425;83;21050;-54
2021/03/20 00:16:02;;;;;;;29.52;16.90;;;;;;;2.34;75.27;100349.77;1704527;84;21038;-54
2021/03/20 00:18:34;;;;;;;26.60;15.53;;;;;;;2.36;75.36;100353.93;1704681;84;21192;-54
2021/03/20 00:21:08;;;;;;;24.95;15.10;;;;;;;2.40;74.97;100359.22;1704543;83;21198;-54
2021/03/20 00:23:37;;;;;;;28.52;15.75;;;;;;;2.41;74.70;100360.03;1704584;84;20987;-54
2021/03/20 00:26:09;;;;;;;27.10;15.00;;;;;;;2.44;74.59;100358.77;1703987;84;21093;-56
2021/03/20 00:28:36;;;;;;;22.93;13.83;;;;;;;2.40;74.18;100359.22;1684811;84;21090;-54
2021/03/20 00:31:13;;;;;;;20.92;14.45;;;;;;;2.39;73.91;100356.73;1704446;83;21027;-56
2021/03/20 00:33:42;;;;;;;22.77;15.98;;;;;;;2.42;73.72;100361.17;1704740;84;21469;-54
2021/03/20 00:36:17;;;;;;;18.45;13.72;;;;;;;2.42;73.56;100354.39;1704398;83;23909;-54
2021/03/20 00:38:46;;;;;;;21.17;13.68;;;;;;;2.45;73.45;100360.44;1701754;84;21208;-54
2021/03/20 00:41:14;;;;;;;23.55;15.65;;;;;;;2.43;73.22;100363.38;1704565;84;21007;-54
2021/03/20 00:43:41;;;;;;;21.52;14.18;;;;;;;2.44;72.92;100363.66;1704262;84;21376;-54
2021/03/20 00:46:11;;;;;;;25.75;17.12;;;;;;;2.46;72.39;100358.86;1704550;84;21389;-54
2021/03/20 00:48:41;;;;;;;23.60;16.17;;;;;;;2.46;72.21;100354.80;1704481;83;21050;-54
2021/03/20 00:51:10;;;;;;;26.60;15.68;;;;;;;2.42;72.13;100353.03;1704419;84;21066;-54
2021/03/20 00:53:38;;;;;;;25.52;16.82;;;;;;;2.40;71.94;100357.02;1704887;84;21121;-56
2021/03/20 00:56:06;;;;;;;24.30;16.55;;;;;;;2.39;71.87;100352.13;1700036;83;21070;-55
2021/03/20 00:58:42;;;;;;;26.57;16.80;;;;;;;2.38;71.72;100357.77;1703767;84;21222;-54
2021/03/20 01:01:14;;;;;;;25.43;15.80;;;;;;;2.33;71.64;100354.38;1696777;83;20999;-54
2021/03/20 01:03:43;;;;;;;23.85;16.60;;;;;;;2.30;71.73;100354.82;1696500;84;21032;-54
2021/03/20 01:06:27;;;;;;;25.37;16.45;;;;;;;2.29;71.41;100357.22;1696691;83;21577;-54
2021/03/20 01:08:56;;;;;;;23.65;14.73;;;;;;;2.27;71.40;100347.11;1696840;84;21051;-54
2021/03/20 01:11:29;;;;;;;24.65;15.45;;;;;;;2.26;71.39;100356.31;1696673;84;21224;-54
2021/03/20 01:14:02;;;;;;;23.18;15.40;;;;;;;2.23;71.35;100353.51;1696584;83;21067;-54
2021/03/20 01:16:35;;;;;;;23.75;14.98;;;;;;;2.22;71.33;100355.91;1696834;83;21672;-54
2021/03/20 01:19:06;;;;;;;27.17;15.35;;;;;;;2.22;71.24;100357.26;1696273;84;21039;-54
2021/03/20 01:21:34;;;;;;;20.88;14.45;;;;;;;2.20;70.97;100354.45;1703820;84;21067;-54
2021/03/20 01:24:03;;;;;;;20.70;13.75;;;;;;;2.20;71.15;100359.88;1703946;84;21132;-54
2021/03/20 01:26:38;;;;;;;17.02;12.00;;;;;;;2.18;70.92;100357.92;1703535;84;21094;-54
2021/03/20 01:29:04;;;;;;;21.37;14.15;;;;;;;2.16;70.79;100358.66;1696684;83;21039;-54
2021/03/20 01:31:31;;;;;;;18.90;13.00;;;;;;;2.13;70.63;100361.30;1703392;84;21015;-54
2021/03/20 01:34:03;;;;;;;19.32;13.80;;;;;;;2.14;70.55;100359.41;1696717;83;20995;-54
2021/03/20 01:36:30;;;;;;;19.42;12.53;;;;;;;2.13;70.33;100361.80;1696445;83;21402;-54
2021/03/20 01:38:59;;;;;;;23.73;13.45;;;;;;;2.12;70.40;100358.81;1700581;84;21078;-54
2021/03/20 01:44:20;;;;;;;26.23;13.72;;;;;;;2.14;70.05;100360.77;1888131;76;22603;-54
2021/03/20 01:46:54;;;;;;;20.75;13.72;;;;;;;2.06;70.10;100360.52;1857264;77;20970;-54
2021/03/20 01:49:37;;;;;;;25.90;16.07;;;;;;;2.04;70.07;100363.45;1858575;77;21355;-54
2021/03/20 01:52:25;;;;;;;24.15;15.95;;;;;;;2.03;70.01;100367.70;1858715;77;21029;-55
2021/03/20 01:55:10;;;;;;;22.58;15.00;;;;;;;2.02;69.99;100369.59;1859055;77;21061;-55
2021/03/20 01:57:51;;;;;;;22.52;14.50;;;;;;;2.01;69.98;100369.27;1858761;77;21073;-55
2021/03/20 02:00:36;;;;;;;22.10;15.45;;;;;;;2.05;69.80;100373.21;1888205;76;22677;-54
2021/03/20 02:03:12;;;;;;;22.62;14.15;;;;;;;2.00;69.74;100370.85;1859174;77;21029;-55
2021/03/20 02:05:49;;;;;;;19.77;13.93;;;;;;;1.99;69.60;100376.80;1821077;78;21222;-55
2021/03/20 02:08:25;;;;;;;23.98;14.00;;;;;;;2.00;69.48;100381.19;1821092;78;21025;-55
2021/03/20 02:11:25;;;;;;;18.62;13.45;;;;;;;2.00;69.58;100383.05;1821421;78;21113;-55
2021/03/20 02:14:01;;;;;;;18.52;13.32;;;;;;;1.98;69.51;100377.84;1820966;78;21047;-55
2021/03/20 02:16:58;;;;;;;16.42;11.57;;;;;;;2.01;69.47;100379.30;1845976;76;22827;-54
2021/03/20 02:20:13;;;;;;;14.43;10.50;;;;;;;1.96;69.61;100379.95;1816000;79;21006;-55
2021/03/20 02:23:10;;;;;;;16.55;11.00;;;;;;;1.96;69.42;100390.79;1816357;79;21239;-54
2021/03/20 02:26:30;;;;;;;14.58;10.90;;;;;;;1.95;69.44;100389.13;1813707;79;21560;-55
2021/03/20 02:29:22;;;;;;;17.17;12.68;;;;;;;1.92;69.54;100396.33;1816306;79;21049;-54
2021/03/20 02:32:25;;;;;;;15.95;12.00;;;;;;;1.90;69.56;100399.77;1798472;79;20986;-55
2021/03/20 02:35:26;;;;;;;19.77;12.58;;;;;;;1.92;69.69;100396.86;1816162;79;21001;-54
2021/03/20 02:38:34;;;;;;;18.92;13.55;;;;;;;1.92;69.73;100396.33;1793995;79;21188;-54
2021/03/20 02:41:28;;;;;;;23.02;14.33;;;;;;;1.90;69.90;100398.41;1783873;80;21049;-54
2021/03/20 02:44:18;;;;;;;19.95;13.15;;;;;;;1.87;70.01;100400.20;1784185;80;21188;-54
2021/03/20 02:46:58;;;;;;;19.82;13.40;;;;;;;1.86;70.22;100399.37;1783730;80;21575;-55
2021/03/20 02:49:47;;;;;;;19.80;13.30;;;;;;;1.85;70.31;100400.42;1783920;79;21532;-55
2021/03/20 02:52:31;;;;;;;21.68;12.20;;;;;;;1.86;70.49;100399.92;1763122;80;21428;-53
2021/03/20 02:55:19;;;;;;;18.80;12.73;;;;;;;1.85;70.56;100406.37;1783495;80;21076;-56
2021/03/20 02:58:09;;;;;;;16.52;11.43;;;;;;;1.85;70.55;100402.31;1783651;80;21044;-54
2021/03/20 03:00:51;;;;;;;15.30;10.10;;;;;;;1.81;70.31;100404.60;1783869;80;21057;-54
2021/03/20 03:03:23;;;;;;;15.45;10.53;;;;;;;1.79;70.22;100404.53;1784034;79;21057;-54
2021/03/20 03:06:04;;;;;;;14.43;9.78;;;;;;;1.77;70.43;100403.91;1784134;80;21197;-54
2021/03/20 03:08:40;;;;;;;13.58;9.33;;;;;;;1.76;70.78;100412.56;1783783;80;21033;-54
2021/03/20 03:11:20;;;;;;;13.32;9.48;;;;;;;1.73;70.94;100412.46;1783984;79;21029;-54
2021/03/20 03:13:58;;;;;;;13.83;9.48;;;;;;;1.70;70.87;100414.76;1783812;79;20990;-54
2021/03/20 03:16:34;;;;;;;14.78;9.30;;;;;;;1.64;71.23;100412.38;1795225;79;21000;-54
2021/03/20 03:19:09;;;;;;;12.40;9.35;;;;;;;1.60;71.69;100415.74;1798379;79;21225;-54
2021/03/20 03:21:43;;;;;;;13.13;9.40;;;;;;;1.58;72.12;100417.31;1798583;79;21043;-54
2021/03/20 03:24:17;;;;;;;12.93;9.65;;;;;;;1.55;72.32;100419.09;1798194;79;27872;-54
2021/03/20 03:26:52;;;;;;;13.48;10.18;;;;;;;1.54;72.42;100417.43;1778892;80;20954;-54
2021/03/20 03:29:28;;;;;;;13.58;9.33;;;;;;;1.51;72.67;100416.51;1778806;80;20970;-53
2021/03/20 03:32:05;;;;;;;16.65;12.43;;;;;;;1.48;72.90;100415.59;1779077;80;20994;-54
2021/03/20 03:34:49;;;;;;;;;;;;;;;1.47;73.24;100419.33;1781516;80;20998;-54
2021/03/20 03:37:31;;;;;;;16.42;12.43;;;;;;;1.41;73.43;100417.48;1777286;79;20187;-54
2021/03/20 03:40:07;;;;;;;16.27;12.53;;;;;;;1.36;73.51;100427.61;1778737;80;20990;-54
2021/03/20 03:42:39;;;;;;;18.20;12.85;;;;;;;1.35;73.89;100410.52;1774512;80;21057;-54
2021/03/20 03:45:09;;;;;;;18.35;12.33;;;;;;;1.42;73.89;100417.27;1778554;80;21374;-54
2021/03/20 03:47:39;;;;;;;18.20;12.35;;;;;;;1.45;73.85;100411.95;1760118;81;21071;-53
2021/03/20 03:50:13;;;;;;;20.15;13.95;;;;;;;1.49;73.83;100416.72;1730053;82;21060;-54
2021/03/20 03:52:55;;;;;;;20.62;13.50;;;;;;;1.53;73.68;100414.44;1760217;81;21657;-53
2021/03/20 03:55:23;;;;;;;20.65;12.50;;;;;;;1.55;73.62;100416.39;1778873;80;21025;-53
2021/03/20 03:58:19;;;;;;;17.42;11.68;;;;;;;1.60;73.48;100419.30;1760204;81;21378;-54
2021/03/20 04:01:09;;;;;;;;;;;;;;;1.60;73.29;100415.23;1738939;82;21085;-54
2021/03/20 04:04:25;;;;;;;18.12;11.48;;;;;;;1.57;73.46;100418.34;1778568;80;20179;-54
2021/03/20 04:07:31;;;;;;;12.00;8.90;;;;;;;1.57;73.79;100424.30;1778492;80;21024;-54
2021/03/20 04:10:17;;;;;;;13.10;8.85;;;;;;;1.58;74.09;100423.27;1760414;81;21063;-54
2021/03/20 04:13:16;;;;;;;13.98;10.10;;;;;;;1.55;74.26;100425.87;1777304;80;21302;-54
2021/03/20 04:16:08;;;;;;;15.98;9.85;;;;;;;1.54;74.29;100430.96;1753640;81;21045;-54
2021/03/20 04:19:04;;;;;;;13.72;10.55;;;;;;;1.54;74.50;100431.81;1695814;82;21021;-54
2021/03/20 04:22:10;;;;;;;13.88;10.78;;;;;;;1.58;74.69;100436.80;1709017;82;21591;-54
2021/03/20 04:24:51;;;;;;;17.75;11.57;;;;;;;1.62;74.86;100436.69;1730230;82;21005;-54
2021/03/20 04:27:22;;;;;;;19.23;11.60;;;;;;;1.62;74.86;100436.15;1730260;82;21211;-54
2021/03/20 04:30:22;;;;;;;13.55;10.05;;;;;;;1.59;74.21;100442.50;1703696;82;21005;-54
2021/03/20 04:33:06;;;;;;;13.85;10.48;;;;;;;1.55;73.87;100446.17;1730502;82;21686;-54
2021/03/20 04:35:57;;;;;;;14.55;11.50;;;;;;;1.53;73.44;100442.33;1730341;82;21051;-54
2021/03/20 04:38:42;;;;;;;19.17;11.68;;;;;;;1.50;72.87;100450.03;1730073;81;21017;-54
2021/03/20 04:41:09;;;;;;;19.00;11.57;;;;;;;1.46;72.33;100448.78;1730076;82;21208;-54
2021/03/20 04:43:45;;;;;;;17.85;12.07;;;;;;;1.45;72.15;100448.50;1780733;80;21458;-54
2021/03/20 04:46:22;;;;;;;17.23;12.23;;;;;;;1.47;71.79;100450.45;1783173;80;21370;-54
2021/03/20 04:49:29;;;;;;;18.27;11.53;;;;;;;1.49;71.50;100453.80;1835017;78;22768;-54
2021/03/20 04:52:16;;;;;;;22.00;13.18;;;;;;;1.43;71.58;100452.77;1807588;79;21001;-54
2021/03/20 04:54:44;;;;;;;21.35;13.83;;;;;;;1.46;71.46;100465.03;1793946;79;21194;-54
2021/03/20 04:57:34;;;;;;;19.52;13.00;;;;;;;1.44;71.26;100465.77;1806231;79;21030;-54
2021/03/20 05:00:31;;;;;;;21.57;14.68;;;;;;;1.46;71.38;100467.23;1807560;79;21038;-54
2021/03/20 05:03:34;;;;;;;22.48;13.78;;;;;;;1.48;71.23;100473.78;1807468;79;21013;-55
2021/03/20 05:06:14;;;;;;;24.50;15.35;;;;;;;1.50;71.18;100471.69;1807774;79;20986;-54
2021/03/20 05:08:51;;;;;;;26.40;15.65;;;;;;;1.50;71.21;100472.53;1807191;79;22133;-54
2021/03/20 05:11:59;;;;;;;27.07;15.38;;;;;;;1.51;70.97;100474.17;1807203;79;21050;-54
2021/03/20 05:14:45;;;;;;;26.20;16.05;;;;;;;1.55;70.85;100472.71;1807361;79;21038;-54
2021/03/20 05:17:24;;;;;;;28.20;17.07;;;;;;;1.54;70.40;100472.42;1807411;79;20994;-55
2021/03/20 05:19:51;;;;;;;24.37;14.35;;;;;;;1.57;70.24;100469.79;1806664;79;20974;-55
2021/03/20 05:22:30;;;;;;;26.12;15.43;;;;;;;1.60;69.94;100473.45;1807215;79;22219;-55
2021/03/20 05:24:59;;;;;;;28.80;17.45;;;;;;;1.62;69.71;100480.00;1807428;79;21662;-55
2021/03/20 05:27:32;;;;;;;35.03;18.12;;;;;;;1.62;69.70;100476.77;1807711;79;20990;-55
2021/03/20 05:30:05;;;;;;;32.83;17.77;;;;;;;1.63;69.78;100487.91;1807226;79;21616;-55
2021/03/20 05:32:33;;;;;;;25.43;15.18;;;;;;;1.66;69.76;100479.36;1807350;79;21537;-55
2021/03/20 05:35:09;;;;;;;26.35;13.93;;;;;;;1.68;69.62;100487.27;1807731;79;21203;-55
2021/03/20 05:37:43;;;;;;;21.85;13.20;;;;;;;1.67;69.54;100479.67;1789064;79;20990;-55
2021/03/20 05:40:26;;;;;;;24.10;14.13;;;;;;;1.68;69.22;100488.09;1775500;80;21010;-55
2021/03/20 05:43:08;;;;;;;18.05;12.37;;;;;;;1.77;69.24;100487.33;1845843;76;22666;-55
2021/03/20 05:45:59;;;;;;;21.93;13.15;;;;;;;1.76;69.32;100486.19;1816230;79;20962;-55
2021/03/20 05:48:36;;;;;;;22.07;12.58;;;;;;;1.77;69.17;100494.09;1816319;79;21588;-55
2021/03/20 05:51:27;;;;;;;19.87;13.88;;;;;;;1.81;68.96;100493.16;1815504;79;21614;-55
2021/03/20 05:54:29;;;;;;;21.55;14.07;;;;;;;1.90;68.95;100495.92;1816078;79;21062;-54
2021/03/20 05:57:18;;;;;;;20.35;13.70;;;;;;;1.95;69.21;100492.06;1815927;79;21006;-55
2021/03/20 06:00:08;;;;;;;22.87;12.07;;;;;;;1.96;69.01;100495.09;1816138;78;20962;-55
2021/03/20 06:03:15;;;;;;;21.85;12.80;;;;;;;1.97;68.16;100496.77;1815903;79;21113;-54
2021/03/20 06:05:55;;;;;;;17.90;11.40;;;;;;;1.95;67.95;100501.55;1816318;79;20982;-55
2021/03/20 06:08:49;;;;;;;;;;;;;;;2.01;67.99;100506.09;1818679;79;20993;-54
2021/03/20 06:11:52;;;;;;;23.05;13.65;;;;;;;2.01;67.79;100512.87;1815762;79;20204;-54
2021/03/20 06:14:37;;;;;;;17.37;12.70;;;;;;;2.05;67.30;100506.52;1816111;79;21540;-55
2021/03/20 06:17:44;;;;;;;14.98;11.08;;;;;;;2.16;67.34;100522.09;1816208;79;21377;-55
2021/03/20 06:20:25;;;;;;;15.05;10.28;;;;;;;2.25;67.36;100509.13;1815960;79;21615;-54
2021/03/20 06:23:23;;;;;;;23.25;11.60;;;;;;;2.28;66.23;100515.47;1815381;79;20947;-54
2021/03/20 06:26:17;;;;;;;15.60;10.20;;;;;;;2.27;66.51;100519.22;1794780;78;21251;-55
2021/03/20 06:29:01;;;;;;;17.27;10.68;;;;;;;2.31;66.89;100521.80;1816050;79;21091;-54
2021/03/20 06:31:52;;;;;;;14.68;9.53;;;;;;;2.42;67.16;100522.48;1816028;79;21332;-54
2021/03/20 06:34:42;;;;;;;18.48;10.43;;;;;;;2.49;66.52;100519.73;1816080;79;21001;-54
2021/03/20 06:37:14;;;;;;;14.15;10.15;;;;;;;2.54;66.43;100527.21;1802731;79;21041;-54
2021/03/20 06:40:21;;;;;;;19.73;12.45;;;;;;;2.59;66.01;100531.47;1783658;80;21024;-55
2021/03/20 06:42:53;;;;;;;14.73;10.03;;;;;;;2.58;65.26;100527.09;1793564;79;21005;-54
2021/03/20 06:45:32;;;;;;;17.45;9.68;;;;;;;2.61;65.21;100528.00;1795361;79;21076;-54
2021/03/20 06:48:13;;;;;;;16.95;9.20;;;;;;;2.60;64.63;100531.75;1769545;79;20975;-54
2021/03/20 06:50:46;;;;;;;15.18;10.03;;;;;;;2.68;64.71;100528.79;1792277;79;21025;-54
2021/03/20 06:53:19;;;;;;;15.30;10.57;;;;;;;2.76;64.15;100532.60;1795710;79;20982;-55
2021/03/20 06:55:52;;;;;;;15.45;10.08;;;;;;;2.81;64.28;100532.47;1795593;79;21603;-54
2021/03/20 06:58:27;;;;;;;15.32;9.50;;;;;;;2.89;64.21;100536.28;1744110;79;21214;-55
2021/03/20 07:01:04;;;;;;;12.88;8.68;;;;;;;3.02;63.65;100532.10;1795329;79;21734;-55
2021/03/20 07:03:57;;;;;;;14.70;8.95;;;;;;;3.20;63.23;100533.20;1794566;79;21293;-54
2021/03/20 07:06:35;;;;;;;20.37;10.88;;;;;;;3.36;63.32;100543.52;1771298;79;21013;-54
2021/03/20 07:09:10;;;;;;;18.90;9.83;;;;;;;3.48;63.36;100536.00;1795091;79;21057;-54
2021/03/20 07:11:50;;;;;;;16.45;11.00;;;;;;;3.45;62.80;100539.45;1795099;79;21029;-55
2021/03/20 07:14:40;;;;;;;15.23;9.75;;;;;;;3.50;63.34;100540.16;1788472;78;22052;-55
2021/03/20 07:17:25;;;;;;;18.80;9.40;;;;;;;3.63;62.77;100552.78;1757813;79;20993;-55
2021/03/20 07:20:18;;;;;;;17.20;9.55;;;;;;;3.71;62.25;100547.03;1794976;79;21024;-54
2021/03/20 07:22:52;;;;;;;19.12;11.43;;;;;;;3.80;62.18;100560.64;1794517;79;20977;-54
2021/03/20 07:25:43;;;;;;;37.50;13.62;;;;;;;3.91;61.29;100556.87;1770116;79;21379;-54
2021/03/20 07:28:20;;;;;;;17.48;10.38;;;;;;;4.06;60.88;100558.69;1793082;79;21072;-55
2021/03/20 07:31:12;;;;;;;13.78;9.00;;;;;;;4.23;59.50;100562.14;1794796;79;21583;-55
2021/03/20 07:33:48;;;;;;;19.42;9.58;;;;;;;4.40;59.37;100559.12;1795101;79;21049;-55
2021/03/20 07:36:35;;;;;;;16.23;8.00;;;;;;;4.55;58.65;100563.32;1795382;78;20985;-55
2021/03/20 07:39:26;;;;;;;21.70;10.75;;;;;;;4.61;57.77;100561.84;1795027;79;21277;-55
2021/03/20 07:42:00;;;;;;;12.23;8.75;;;;;;;4.64;56.68;100570.08;1792016;79;21065;-55
2021/03/20 07:44:50;;;;;;;16.32;9.00;;;;;;;4.73;56.46;100571.95;1781807;80;21593;-55
2021/03/20 07:47:20;;;;;;;16.57;9.78;;;;;;;4.81;54.91;100572.45;1783150;80;21022;-54
2021/03/20 07:49:55;;;;;;;20.20;9.80;;;;;;;4.93;54.79;100579.83;1783107;80;21065;-55
2021/03/20 07:52:27;;;;;;;18.50;8.40;;;;;;;5.03;54.61;100578.75;1756189;80;22245;-54
2021/03/20 07:57:59;;;;;;;15.90;7.95;;;;;;;5.26;52.75;100579.33;1775621;79;22875;-54
2021/03/20 08:00:35;;;;;;;19.35;9.08;;;;;;;5.32;52.80;100585.73;1747952;82;21042;-54
2021/03/20 08:03:14;;;;;;;24.47;9.43;;;;;;;5.45;52.02;100581.96;1735213;82;21219;-54
2021/03/20 08:08:32;;;;;;;25.23;14.75;;;;;;;5.76;50.15;100580.78;1844134;76;22523;-55
2021/03/20 08:11:08;;;;;;;13.72;8.50;;;;;;;5.76;49.30;100582.15;1815867;79;20978;-55
2021/03/20 08:13:47;;;;;;;14.37;10.70;;;;;;;5.80;48.69;100579.77;1816269;79;21383;-55
2021/03/20 08:16:22;;;;;;;11.30;7.10;;;;;;;5.78;48.71;100588.18;1815805;79;21624;-54
2021/03/20 08:18:58;;;;;;;8.73;5.62;;;;;;;5.81;48.81;100586.34;1815873;79;21041;-55
2021/03/20 08:21:34;;;;;;;8.35;5.83;;;;;;;5.88;48.55;100588.95;1815776;78;21001;-54
2021/03/20 08:24:39;;;;;;;12.25;6.92;;;;;;;5.93;48.46;100590.95;1815912;79;21493;-54
2021/03/20 08:27:25;;;;;;;11.38;7.72;;;;;;;5.90;48.85;100592.25;1815520;79;21196;-55
2021/03/20 08:30:04;;;;;;;10.30;6.37;;;;;;;5.91;48.74;100594.47;1815877;79;21017;-54
2021/03/20 08:32:54;;;;;;;16.82;8.45;;;;;;;6.01;48.95;100591.99;1795603;79;21029;-53
2021/03/20 08:35:40;;;;;;;19.30;9.33;;;;;;;6.18;48.71;100591.55;1815841;78;21009;-54
2021/03/20 08:38:28;;;;;;;19.23;9.25;;;;;;;6.31;48.55;100596.45;1787530;79;20998;-54
2021/03/20 08:41:41;;;;;;;24.45;6.85;;;;;;;6.32;47.73;100596.75;1783848;80;21194;-54
2021/03/20 08:44:35;;;;;;;9.30;5.60;;;;;;;6.45;46.62;100595.66;1783436;80;21034;-54
2021/03/20 08:47:22;;;;;;;16.32;9.05;;;;;;;6.57;45.46;100601.88;1783722;80;20997;-54
2021/03/20 08:50:22;;;;;;;18.87;7.22;;;;;;;6.78;45.47;100595.47;1783843;80;21468;-54
2021/03/20 08:53:07;;;;;;;21.00;8.30;;;;;;;7.00;43.55;100595.59;1784112;80;20931;-55
2021/03/20 08:56:04;;;;;;;14.98;7.50;;;;;;;7.26;42.85;100599.08;1784138;79;21193;-54
2021/03/20 08:58:57;;;;;;;13.65;8.68;;;;;;;7.46;42.26;100603.75;1784529;79;21915;-55
2021/03/20 09:01:50;;;;;;;13.25;4.92;;;;;;;7.59;41.76;100601.52;1784401;80;21049;-54
2021/03/20 09:04:22;;;;;;;7.70;4.40;;;;;;;7.76;41.05;100595.23;1753716;80;20997;-55
2021/03/20 09:07:04;;;;;;;11.22;7.95;;;;;;;7.90;40.82;100595.69;1783752;79;21556;-54
2021/03/20 09:09:46;;;;;;;19.87;9.58;;;;;;;8.01;40.03;100587.09;1783599;80;21195;-54
2021/03/20 09:12:36;;;;;;;25.52;13.95;;;;;;;8.07;39.26;100599.23;1784055;79;21005;-54
2021/03/20 09:15:24;;;;;;;7.80;4.40;;;;;;;8.15;38.71;100603.43;1783398;79;21053;-55
2021/03/20 09:17:58;;;;;;;6.35;3.98;;;;;;;8.28;38.38;100597.58;1773555;80;21042;-55
2021/03/20 09:20:47;;;;;;;6.35;3.85;;;;;;;8.38;38.03;100591.41;1781119;80;21000;-54
2021/03/20 09:23:32;;;;;;;15.83;7.10;;;;;;;8.55;37.98;100595.48;1783099;80;21464;-54
2021/03/20 09:26:04;;;;;;;12.55;6.10;;;;;;;8.68;37.45;100604.40;1782688;80;21013;-54
2021/03/20 09:28:59;;;;;;;31.17;11.00;;;;;;;8.69;37.72;100595.08;1783091;80;21033;-54
2021/03/20 09:32:11;;;;;;;20.35;9.53;;;;;;;8.92;38.02;100590.69;1888035;75;22625;-55
2021/03/20 09:34:47;;;;;;;9.48;5.75;;;;;;;9.03;38.04;100594.37;1858762;77;21056;-55
2021/03/20 09:37:25;;;;;;;6.85;4.55;;;;;;;9.08;37.89;100593.58;1817691;78;21195;-55
2021/03/20 09:39:57;;;;;;;13.20;4.90;;;;;;;9.10;38.21;100591.40;1782471;80;21022;-55
2021/03/20 09:42:38;;;;;;;13.15;8.00;;;;;;;9.01;38.07;100596.52;1782738;80;21053;-55
2021/03/20 09:45:20;;;;;;;13.53;8.38;;;;;;;9.03;38.48;100593.00;1782333;80;21010;-55
2021/03/20 09:47:57;;;;;;;7.83;5.17;;;;;;;9.19;38.60;100594.48;1782518;80;21054;-55
2021/03/20 09:50:34;;;;;;;14.18;8.48;;;;;;;9.48;38.57;100592.29;1782290;80;21201;-55
2021/03/20 09:53:16;;;;;;;14.53;7.20;;;;;;;9.72;38.00;100594.64;1782534;80;21065;-56
2021/03/20 09:55:56;;;;;;;7.10;4.85;;;;;;;9.91;37.60;100590.39;1782481;80;20971;-56
2021/03/20 09:58:32;;;;;;;10.10;4.70;;;;;;;10.01;36.92;100589.63;1782251;80;20963;-55
2021/03/20 10:01:05;;;;;;;13.10;6.87;;;;;;;10.20;37.20;100592.22;1782248;80;21547;-55
2021/03/20 10:03:55;;;;;;;12.47;7.62;;;;;;;10.45;36.39;100592.63;1782811;80;21270;-55
2021/03/20 10:06:39;;;;;;;8.95;5.75;;;;;;;10.66;36.84;100591.61;1778775;80;21065;-55
2021/03/20 10:09:21;;;;;;;19.98;4.90;;;;;;;10.82;35.99;100588.91;1782684;80;21041;-55
2021/03/20 10:11:58;;;;;;;8.98;4.22;;;;;;;11.03;35.59;100585.10;1782651;80;21038;-56
2021/03/20 10:14:36;;;;;;;6.90;4.17;;;;;;;11.20;34.63;100584.84;1782638;80;21042;-56
2021/03/20 10:17:20;;;;;;;10.55;7.08;;;;;;;11.43;33.93;100576.31;1782671;80;21392;-56
2021/03/20 10:20:09;;;;;;;6.67;4.20;;;;;;;11.62;34.44;100587.04;1782656;80;21073;-56
2021/03/20 10:22:58;;;;;;;14.60;5.10;;;;;;;11.76;34.21;100579.05;1782993;80;21053;-54
2021/03/20 10:25:27;;;;;;;7.22;4.47;;;;;;;11.85;34.63;100583.44;1783361;80;20986;-55
2021/03/20 10:28:07;;;;;;;17.17;5.33;;;;;;;11.96;34.55;100574.09;1750548;80;21626;-55
2021/03/20 10:30:45;;;;;;;8.35;5.08;;;;;;;12.13;33.82;100572.36;1780652;80;21065;-55
2021/03/20 10:33:24;;;;;;;9.45;5.37;;;;;;;12.45;33.75;100574.73;1788542;80;20958;-55
2021/03/20 10:36:17;;;;;;;7.15;4.78;;;;;;;12.67;33.26;100579.03;1788749;80;21645;-55
2021/03/20 10:38:49;;;;;;;10.98;6.05;;;;;;;12.61;33.15;100577.42;1788102;80;20962;-55
2021/03/20 10:41:35;;;;;;;8.58;5.00;;;;;;;12.31;33.09;100584.70;1788248;80;20982;-55
2021/03/20 10:44:25;;;;;;;11.93;5.00;;;;;;;12.11;32.40;100588.36;1787814;80;21280;-55
2021/03/20 10:47:26;;;;;;;6.17;4.83;;;;;;;11.66;33.03;100580.42;1787611;80;21061;-55
2021/03/20 10:50:10;;;;;;;10.43;5.67;;;;;;;11.08;33.13;100573.28;1787593;80;21045;-55
2021/03/20 10:52:49;;;;;;;12.15;7.70;;;;;;;10.51;34.56;100577.81;1786077;80;21025;-55
2021/03/20 10:55:38;;;;;;;12.13;5.47;;;;;;;10.29;35.46;100582.92;1787746;80;21033;-55
2021/03/20 10:58:09;;;;;;;11.65;4.65;;;;;;;10.32;35.88;100570.58;1788027;80;21539;-55
2021/03/20 11:00:48;;;;;;;9.08;5.17;;;;;;;10.48;36.46;100571.50;1759549;80;21010;-55
2021/03/20 11:03:30;;;;;;;10.25;5.53;;;;;;;10.83;36.42;100565.28;1787506;80;21056;-55
2021/03/20 11:06:18;;;;;;;9.73;5.95;;;;;;;11.08;35.68;100564.22;1787574;80;21057;-55
2021/03/20 11:09:23;;;;;;;7.95;5.53;;;;;;;11.03;34.33;100567.23;1788052;80;21022;-55
2021/03/20 11:12:04;;;;;;;9.65;6.15;;;;;;;10.62;35.13;100571.82;1786557;80;22234;-55
2021/03/20 11:14:56;;;;;;;9.80;6.80;;;;;;;10.00;35.91;100566.86;1787836;80;20994;-55
2021/03/20 11:17:32;;;;;;;31.95;12.78;;;;;;;9.46;36.64;100565.13;1918147;73;22613;-55
2021/03/20 11:20:05;;;;;;;20.75;11.50;;;;;;;9.06;37.24;100562.86;1885436;76;20984;-55
2021/03/20 11:22:38;;;;;;;113.50;59.95;;;;;;;8.80;38.29;100566.20;1885631;76;21183;-55
2021/03/20 11:25:11;;;;;;;71.07;38.92;;;;;;;8.58;37.97;100563.48;1884976;76;20957;-55
2021/03/20 11:27:39;;;;;;;30.40;16.60;;;;;;;8.30;38.22;100563.96;1879925;76;21070;-56
2021/03/20 11:30:21;;;;;;;27.75;17.02;;;;;;;8.14;39.30;100564.83;1884945;75;20965;-55
2021/03/20 11:32:58;;;;;;;15.48;9.98;;;;;;;7.98;38.97;100570.64;1884896;76;20941;-55
2021/03/20 11:35:35;;;;;;;12.75;9.48;;;;;;;7.83;39.59;100563.06;1884816;76;21184;-55
2021/03/20 11:38:11;;;;;;;10.58;8.75;;;;;;;7.74;39.58;100567.29;1853146;76;21028;-55
2021/03/20 11:40:45;;;;;;;9.63;7.53;;;;;;;7.64;39.39;100564.41;1851121;77;21403;-55
2021/03/20 11:43:25;;;;;;;9.55;6.62;;;;;;;7.60;39.50;100562.19;1851014;76;21059;-55
2021/03/20 11:46:07;;;;;;;9.30;5.28;;;;;;;7.64;39.37;100556.21;1851172;77;20992;-55
2021/03/20 11:48:42;;;;;;;10.53;8.75;;;;;;;7.57;38.81;100558.59;1850824;76;21276;-56
2021/03/20 11:51:28;;;;;;;37.15;30.00;;;;;;;7.49;38.92;100549.44;1850725;77;21086;-55
2021/03/20 11:54:03;;;;;;;17.77;15.08;;;;;;;7.78;38.98;100557.51;1849408;77;21480;-55
2021/03/20 11:56:34;;;;;;;9.88;7.30;;;;;;;8.22;37.90;100550.72;1849691;77;20937;-54
2021/03/20 11:59:34;;;;;;;13.72;7.55;;;;;;;8.68;37.25;100556.48;1850095;77;21597;-55
2021/03/20 12:02:02;;;;;;;7.50;5.20;;;;;;;9.20;36.64;100550.38;1850096;77;21806;-54
2021/03/20 12:04:32;;;;;;;15.38;7.03;;;;;;;9.53;36.45;100549.84;1850111;77;21020;-54
2021/03/20 12:07:28;;;;;;;10.72;5.12;;;;;;;9.54;35.62;100552.84;1850000;77;21031;-54
2021/03/20 12:10:23;;;;;;;15.75;9.88;;;;;;;9.38;36.21;100545.61;1850140;76;20945;-54
2021/03/20 12:12:57;;;;;;;8.90;5.80;;;;;;;9.09;36.50;100544.00;1817609;77;21627;-54
2021/03/20 12:15:34;;;;;;;7.53;4.75;;;;;;;8.84;36.36;100545.95;1850118;76;21367;-53
2021/03/20 12:18:21;;;;;;;6.62;4.33;;;;;;;8.59;36.75;100550.64;1850212;77;20949;-54
2021/03/20 12:20:50;;;;;;;15.50;10.10;;;;;;;8.27;37.59;100541.21;1850649;77;20980;-55
2021/03/20 12:23:26;;;;;;;9.80;8.80;;;;;;;8.09;37.29;100538.80;1850568;77;22244;-55
2021/03/20 12:25:56;;;;;;;9.18;6.00;;;;;;;7.94;36.87;100540.25;1850581;77;20996;-55
2021/03/20 12:28:39;;;;;;;7.85;5.75;;;;;;;7.71;37.12;100541.27;1849578;77;21553;-55
2021/03/20 12:31:23;;;;;;;8.53;5.42;;;;;;;7.51;37.44;100540.44;1849175;77;21109;-55
2021/03/20 12:34:12;;;;;;;13.03;7.30;;;;;;;7.36;37.40;100534.20;1849685;77;21649;-55
2021/03/20 12:36:48;;;;;;;8.95;5.08;;;;;;;7.33;38.12;100533.86;1849600;76;20995;-54